sensor_id;sensor_type;location;lat;lon;timestamp;temperature;humidity
12885;DHT22;6510;51.362;7.370;2023-04-24T00:00:46;9.50;99.90
12885;DHT22;6510;51.362;7.370;2023-04-24T00:03:12;9.40;99.90
12885;DHT22;6510;51.362;7.370;2023-04-24T00:05:38;9.40;99.90
12885;DHT22;6510;51.362;7.370;2023-04-24T00:08:05;9.50;99.90
12885;DHT22;6510;51.362;7.370;2023-04-24T00:10:31;9.40;99.90
12885;DHT22;6510;51.362;7.370;2023-04-24T00:12:57;9.30;99.90
12885;DHT22;6510;51.362;7.370;2023-04-24T00:15:23;9.40;99.90
12885;DHT22;6510;51.362;7.370;2023-04-24T00:17:48;9.30;99.90
12885;DHT22;6510;51.362;7.370;2023-04-24T00:20:14;9.40;99.90
12885;DHT22;6510;51.362;7.370;2023-04-24T00:22:40;9.20;99.90
12885;DHT22;6510;51.362;7.370;2023-04-24T00:25:06;9.20;99.90
12885;DHT22;6510;51.362;7.370;2023-04-24T00:27:34;9.20;99.90
12885;DHT22;6510;51.362;7.370;2023-04-24T00:30:02;9.20;99.90
12885;DHT22;6510;51.362;7.370;2023-04-24T00:32:28;9.20;99.90
12885;DHT22;6510;51.362;7.370;2023-04-24T00:34:53;9.20;99.90
12885;DHT22;6510;51.362;7.370;2023-04-24T00:37:19;9.10;99.90
12885;DHT22;6510;51.362;7.370;2023-04-24T00:39:45;9.10;99.90
12885;DHT22;6510;51.362;7.370;2023-04-24T00:42:10;9.00;99.90
12885;DHT22;6510;51.362;7.370;2023-04-24T00:44:36;9.00;99.90
12885;DHT22;6510;51.362;7.370;2023-04-24T00:47:02;9.10;99.90
12885;DHT22;6510;51.362;7.370;2023-04-24T00:49:28;9.20;99.90
12885;DHT22;6510;51.362;7.370;2023-04-24T00:51:54;9.10;99.90
12885;DHT22;6510;51.362;7.370;2023-04-24T00:54:20;9.00;99.90
12885;DHT22;6510;51.362;7.370;2023-04-24T00:56:46;9.20;99.90
12885;DHT22;6510;51.362;7.370;2023-04-24T00:59:16;9.20;99.90
12885;DHT22;6510;51.362;7.370;2023-04-24T01:01:44;9.20;99.90
12885;DHT22;6510;51.362;7.370;2023-04-24T01:04:11;9.20;99.90
12885;DHT22;6510;51.362;7.370;2023-04-24T01:06:39;9.20;99.90
12885;DHT22;6510;51.362;7.370;2023-04-24T01:09:05;9.30;99.90
12885;DHT22;6510;51.362;7.370;2023-04-24T01:11:33;9.30;99.90
12885;DHT22;6510;51.362;7.370;2023-04-24T01:13:59;9.30;99.90
12885;DHT22;6510;51.362;7.370;2023-04-24T01:16:25;9.40;99.90
12885;DHT22;6510;51.362;7.370;2023-04-24T01:18:51;9.40;99.90
12885;DHT22;6510;51.362;7.370;2023-04-24T01:21:18;9.40;99.90
12885;DHT22;6510;51.362;7.370;2023-04-24T01:23:45;9.50;99.90
12885;DHT22;6510;51.362;7.370;2023-04-24T01:26:16;9.50;99.90
12885;DHT22;6510;51.362;7.370;2023-04-24T01:28:41;9.60;99.90
12885;DHT22;6510;51.362;7.370;2023-04-24T01:31:07;9.50;99.90
12885;DHT22;6510;51.362;7.370;2023-04-24T01:33:33;9.50;99.90
12885;DHT22;6510;51.362;7.370;2023-04-24T01:35:59;9.50;99.90
12885;DHT22;6510;51.362;7.370;2023-04-24T01:38:25;9.50;99.90
12885;DHT22;6510;51.362;7.370;2023-04-24T01:40:51;9.50;99.90
12885;DHT22;6510;51.362;7.370;2023-04-24T01:43:17;9.50;99.90
12885;DHT22;6510;51.362;7.370;2023-04-24T01:45:43;9.50;99.90
12885;DHT22;6510;51.362;7.370;2023-04-24T01:48:09;9.50;99.90
12885;DHT22;6510;51.362;7.370;2023-04-24T01:50:35;9.50;99.90
12885;DHT22;6510;51.362;7.370;2023-04-24T01:53:00;9.40;99.90
12885;DHT22;6510;51.362;7.370;2023-04-24T01:55:26;9.40;99.90
12885;DHT22;6510;51.362;7.370;2023-04-24T01:57:55;9.40;99.90
12885;DHT22;6510;51.362;7.370;2023-04-24T02:00:21;9.40;99.90
12885;DHT22;6510;51.362;7.370;2023-04-24T02:02:46;9.40;99.90
12885;DHT22;6510;51.362;7.370;2023-04-24T02:05:12;9.30;99.90
12885;DHT22;6510;51.362;7.370;2023-04-24T02:07:38;9.30;99.90
12885;DHT22;6510;51.362;7.370;2023-04-24T02:10:04;9.30;99.90
12885;DHT22;6510;51.362;7.370;2023-04-24T02:12:30;9.20;99.90
12885;DHT22;6510;51.362;7.370;2023-04-24T02:14:55;9.20;99.90
12885;DHT22;6510;51.362;7.370;2023-04-24T02:17:21;9.20;99.90
12885;DHT22;6510;51.362;7.370;2023-04-24T02:19:47;9.20;99.90
12885;DHT22;6510;51.362;7.370;2023-04-24T02:22:12;9.10;99.90
12885;DHT22;6510;51.362;7.370;2023-04-24T02:24:38;9.00;99.90
12885;DHT22;6510;51.362;7.370;2023-04-24T02:27:04;9.00;99.90
12885;DHT22;6510;51.362;7.370;2023-04-24T02:29:30;8.90;99.90
12885;DHT22;6510;51.362;7.370;2023-04-24T02:31:56;8.80;99.90
12885;DHT22;6510;51.362;7.370;2023-04-24T02:34:21;8.80;99.90
12885;DHT22;6510;51.362;7.370;2023-04-24T02:36:48;8.80;99.90
12885;DHT22;6510;51.362;7.370;2023-04-24T02:39:14;8.70;99.90
12885;DHT22;6510;51.362;7.370;2023-04-24T02:41:42;8.60;99.90
12885;DHT22;6510;51.362;7.370;2023-04-24T02:44:07;8.60;99.90
12885;DHT22;6510;51.362;7.370;2023-04-24T02:46:33;8.50;99.90
12885;DHT22;6510;51.362;7.370;2023-04-24T02:48:59;8.50;99.90
12885;DHT22;6510;51.362;7.370;2023-04-24T02:51:24;8.50;99.90
12885;DHT22;6510;51.362;7.370;2023-04-24T02:53:50;8.40;99.90
12885;DHT22;6510;51.362;7.370;2023-04-24T02:56:16;8.50;99.90
12885;DHT22;6510;51.362;7.370;2023-04-24T02:58:41;8.40;99.90
12885;DHT22;6510;51.362;7.370;2023-04-24T03:01:07;8.40;99.90
12885;DHT22;6510;51.362;7.370;2023-04-24T03:03:35;8.30;99.90
12885;DHT22;6510;51.362;7.370;2023-04-24T03:06:01;8.30;99.90
12885;DHT22;6510;51.362;7.370;2023-04-24T03:08:29;8.30;99.90
12885;DHT22;6510;51.362;7.370;2023-04-24T03:10:55;8.20;99.90
12885;DHT22;6510;51.362;7.370;2023-04-24T03:13:20;8.20;99.90
12885;DHT22;6510;51.362;7.370;2023-04-24T03:15:46;8.20;99.90
12885;DHT22;6510;51.362;7.370;2023-04-24T03:18:12;8.20;99.90
12885;DHT22;6510;51.362;7.370;2023-04-24T03:20:38;8.20;99.90
12885;DHT22;6510;51.362;7.370;2023-04-24T03:23:03;8.20;99.90
12885;DHT22;6510;51.362;7.370;2023-04-24T03:25:29;8.20;99.90
12885;DHT22;6510;51.362;7.370;2023-04-24T03:27:55;8.20;99.90
12885;DHT22;6510;51.362;7.370;2023-04-24T03:30:21;8.20;99.90
12885;DHT22;6510;51.362;7.370;2023-04-24T03:32:46;8.20;99.90
12885;DHT22;6510;51.362;7.370;2023-04-24T03:35:12;8.20;99.90
12885;DHT22;6510;51.362;7.370;2023-04-24T03:37:37;8.20;99.90
12885;DHT22;6510;51.362;7.370;2023-04-24T03:40:03;8.20;99.90
12885;DHT22;6510;51.362;7.370;2023-04-24T03:42:31;8.20;99.90
12885;DHT22;6510;51.362;7.370;2023-04-24T03:44:56;8.20;99.90
12885;DHT22;6510;51.362;7.370;2023-04-24T03:47:22;8.20;99.90
12885;DHT22;6510;51.362;7.370;2023-04-24T03:49:48;8.20;99.90
12885;DHT22;6510;51.362;7.370;2023-04-24T03:52:13;8.10;99.90
12885;DHT22;6510;51.362;7.370;2023-04-24T03:54:39;8.20;99.90
12885;DHT22;6510;51.362;7.370;2023-04-24T03:57:04;8.20;99.90
12885;DHT22;6510;51.362;7.370;2023-04-24T03:59:30;8.10;99.90
12885;DHT22;6510;51.362;7.370;2023-04-24T04:01:56;8.10;99.90
12885;DHT22;6510;51.362;7.370;2023-04-24T04:04:22;8.10;99.90
12885;DHT22;6510;51.362;7.370;2023-04-24T04:06:47;8.10;99.90
12885;DHT22;6510;51.362;7.370;2023-04-24T04:09:13;8.00;99.90
12885;DHT22;6510;51.362;7.370;2023-04-24T04:11:39;8.00;99.90
12885;DHT22;6510;51.362;7.370;2023-04-24T04:14:04;8.00;99.90
12885;DHT22;6510;51.362;7.370;2023-04-24T04:16:30;8.00;99.90
12885;DHT22;6510;51.362;7.370;2023-04-24T04:18:56;8.00;99.90
12885;DHT22;6510;51.362;7.370;2023-04-24T04:21:22;8.00;99.90
12885;DHT22;6510;51.362;7.370;2023-04-24T04:23:47;8.00;99.90
12885;DHT22;6510;51.362;7.370;2023-04-24T04:26:14;8.00;99.90
12885;DHT22;6510;51.362;7.370;2023-04-24T04:28:39;8.10;99.90
12885;DHT22;6510;51.362;7.370;2023-04-24T04:31:06;8.00;99.90
12885;DHT22;6510;51.362;7.370;2023-04-24T04:33:33;8.10;99.90
12885;DHT22;6510;51.362;7.370;2023-04-24T04:35:59;8.10;99.90
12885;DHT22;6510;51.362;7.370;2023-04-24T04:38:28;8.10;99.90
12885;DHT22;6510;51.362;7.370;2023-04-24T04:40:55;8.10;99.90
12885;DHT22;6510;51.362;7.370;2023-04-24T04:43:26;8.10;99.90
12885;DHT22;6510;51.362;7.370;2023-04-24T04:45:52;8.20;99.90
12885;DHT22;6510;51.362;7.370;2023-04-24T04:48:19;8.10;99.90
12885;DHT22;6510;51.362;7.370;2023-04-24T04:50:45;8.10;99.90
12885;DHT22;6510;51.362;7.370;2023-04-24T04:53:11;8.10;99.90
12885;DHT22;6510;51.362;7.370;2023-04-24T04:55:37;8.10;99.90
12885;DHT22;6510;51.362;7.370;2023-04-24T04:58:03;8.10;99.90
12885;DHT22;6510;51.362;7.370;2023-04-24T05:00:29;8.10;99.90
12885;DHT22;6510;51.362;7.370;2023-04-24T05:02:59;8.10;99.90
12885;DHT22;6510;51.362;7.370;2023-04-24T05:05:25;8.10;99.90
12885;DHT22;6510;51.362;7.370;2023-04-24T05:07:51;8.10;99.90
12885;DHT22;6510;51.362;7.370;2023-04-24T05:10:17;8.10;99.90
12885;DHT22;6510;51.362;7.370;2023-04-24T05:12:42;8.10;99.90
12885;DHT22;6510;51.362;7.370;2023-04-24T05:15:08;8.00;99.90
12885;DHT22;6510;51.362;7.370;2023-04-24T05:17:34;8.00;99.90
12885;DHT22;6510;51.362;7.370;2023-04-24T05:20:00;8.10;99.90
12885;DHT22;6510;51.362;7.370;2023-04-24T05:22:26;8.10;99.90
12885;DHT22;6510;51.362;7.370;2023-04-24T05:24:51;8.10;99.90
12885;DHT22;6510;51.362;7.370;2023-04-24T05:27:17;8.00;99.90
12885;DHT22;6510;51.362;7.370;2023-04-24T05:29:43;8.00;99.90
12885;DHT22;6510;51.362;7.370;2023-04-24T05:32:09;7.90;99.90
12885;DHT22;6510;51.362;7.370;2023-04-24T05:34:34;7.80;99.90
12885;DHT22;6510;51.362;7.370;2023-04-24T05:37:00;7.80;99.90
12885;DHT22;6510;51.362;7.370;2023-04-24T05:39:26;7.80;99.90
12885;DHT22;6510;51.362;7.370;2023-04-24T05:41:52;7.80;99.90
12885;DHT22;6510;51.362;7.370;2023-04-24T05:44:18;7.60;99.90
12885;DHT22;6510;51.362;7.370;2023-04-24T05:46:43;7.40;99.90
12885;DHT22;6510;51.362;7.370;2023-04-24T05:49:09;7.30;99.90
12885;DHT22;6510;51.362;7.370;2023-04-24T05:51:34;7.20;99.90
12885;DHT22;6510;51.362;7.370;2023-04-24T05:54:00;7.20;99.90
12885;DHT22;6510;51.362;7.370;2023-04-24T05:56:27;7.20;99.90
12885;DHT22;6510;51.362;7.370;2023-04-24T05:58:52;7.30;99.90
12885;DHT22;6510;51.362;7.370;2023-04-24T06:01:18;7.30;99.90
12885;DHT22;6510;51.362;7.370;2023-04-24T06:03:44;7.30;99.90
12885;DHT22;6510;51.362;7.370;2023-04-24T06:06:10;7.30;99.90
12885;DHT22;6510;51.362;7.370;2023-04-24T06:08:36;7.30;99.90
12885;DHT22;6510;51.362;7.370;2023-04-24T06:11:01;7.40;99.90
12885;DHT22;6510;51.362;7.370;2023-04-24T06:13:28;7.50;99.90
12885;DHT22;6510;51.362;7.370;2023-04-24T06:15:53;7.50;99.90
12885;DHT22;6510;51.362;7.370;2023-04-24T06:18:19;7.80;99.90
12885;DHT22;6510;51.362;7.370;2023-04-24T06:20:46;7.80;99.90
12885;DHT22;6510;51.362;7.370;2023-04-24T06:23:12;7.90;99.90
12885;DHT22;6510;51.362;7.370;2023-04-24T06:25:38;8.20;99.90
12885;DHT22;6510;51.362;7.370;2023-04-24T06:28:04;8.10;99.90
12885;DHT22;6510;51.362;7.370;2023-04-24T06:30:30;7.60;99.90
12885;DHT22;6510;51.362;7.370;2023-04-24T06:32:55;7.50;99.90
12885;DHT22;6510;51.362;7.370;2023-04-24T06:35:21;7.50;99.90
12885;DHT22;6510;51.362;7.370;2023-04-24T06:37:47;7.60;99.90
12885;DHT22;6510;51.362;7.370;2023-04-24T06:40:12;7.50;99.90
12885;DHT22;6510;51.362;7.370;2023-04-24T06:42:41;7.50;99.90
12885;DHT22;6510;51.362;7.370;2023-04-24T06:45:07;7.50;99.90
12885;DHT22;6510;51.362;7.370;2023-04-24T06:47:33;7.50;99.90
12885;DHT22;6510;51.362;7.370;2023-04-24T06:49:59;7.20;99.90
12885;DHT22;6510;51.362;7.370;2023-04-24T06:52:24;7.10;99.90
12885;DHT22;6510;51.362;7.370;2023-04-24T06:54:50;7.00;99.90
12885;DHT22;6510;51.362;7.370;2023-04-24T06:57:17;6.90;99.90
12885;DHT22;6510;51.362;7.370;2023-04-24T06:59:42;7.00;99.90
12885;DHT22;6510;51.362;7.370;2023-04-24T07:02:08;7.00;99.90
12885;DHT22;6510;51.362;7.370;2023-04-24T07:04:33;7.10;99.90
12885;DHT22;6510;51.362;7.370;2023-04-24T07:06:59;7.10;99.90
12885;DHT22;6510;51.362;7.370;2023-04-24T07:09:26;7.20;99.90
12885;DHT22;6510;51.362;7.370;2023-04-24T07:11:53;7.50;99.90
12885;DHT22;6510;51.362;7.370;2023-04-24T07:14:19;7.80;99.90
12885;DHT22;6510;51.362;7.370;2023-04-24T07:16:45;7.70;99.90
12885;DHT22;6510;51.362;7.370;2023-04-24T07:19:12;7.60;99.90
12885;DHT22;6510;51.362;7.370;2023-04-24T07:21:38;7.60;99.90
12885;DHT22;6510;51.362;7.370;2023-04-24T07:24:04;7.40;99.90
12885;DHT22;6510;51.362;7.370;2023-04-24T07:26:30;7.40;99.90
12885;DHT22;6510;51.362;7.370;2023-04-24T07:28:56;7.20;99.90
12885;DHT22;6510;51.362;7.370;2023-04-24T07:31:22;7.30;99.90
12885;DHT22;6510;51.362;7.370;2023-04-24T07:33:48;7.20;99.90
12885;DHT22;6510;51.362;7.370;2023-04-24T07:36:14;7.30;99.90
12885;DHT22;6510;51.362;7.370;2023-04-24T07:38:45;7.30;99.90
12885;DHT22;6510;51.362;7.370;2023-04-24T07:41:12;7.30;99.90
12885;DHT22;6510;51.362;7.370;2023-04-24T07:43:38;7.30;99.90
12885;DHT22;6510;51.362;7.370;2023-04-24T07:46:03;7.40;99.90
12885;DHT22;6510;51.362;7.370;2023-04-24T07:48:29;7.30;99.90
12885;DHT22;6510;51.362;7.370;2023-04-24T07:50:55;7.30;99.90
12885;DHT22;6510;51.362;7.370;2023-04-24T07:53:20;7.30;99.90
12885;DHT22;6510;51.362;7.370;2023-04-24T07:55:46;7.40;99.90
12885;DHT22;6510;51.362;7.370;2023-04-24T07:58:12;7.30;99.90
12885;DHT22;6510;51.362;7.370;2023-04-24T08:00:37;7.40;99.90
12885;DHT22;6510;51.362;7.370;2023-04-24T08:03:03;7.60;99.90
12885;DHT22;6510;51.362;7.370;2023-04-24T08:05:29;7.70;99.90
12885;DHT22;6510;51.362;7.370;2023-04-24T08:07:55;7.50;99.90
12885;DHT22;6510;51.362;7.370;2023-04-24T08:10:22;7.40;99.90
12885;DHT22;6510;51.362;7.370;2023-04-24T08:12:48;7.40;99.90
12885;DHT22;6510;51.362;7.370;2023-04-24T08:15:14;7.40;99.90
12885;DHT22;6510;51.362;7.370;2023-04-24T08:17:40;7.40;99.90
12885;DHT22;6510;51.362;7.370;2023-04-24T08:20:07;7.40;99.90
12885;DHT22;6510;51.362;7.370;2023-04-24T08:22:40;7.50;99.90
12885;DHT22;6510;51.362;7.370;2023-04-24T08:25:07;7.90;99.90
12885;DHT22;6510;51.362;7.370;2023-04-24T08:27:32;7.70;99.90
12885;DHT22;6510;51.362;7.370;2023-04-24T08:29:58;7.60;99.90
12885;DHT22;6510;51.362;7.370;2023-04-24T08:32:26;7.40;99.90
12885;DHT22;6510;51.362;7.370;2023-04-24T08:34:54;7.30;99.90
12885;DHT22;6510;51.362;7.370;2023-04-24T08:37:25;7.30;99.90
12885;DHT22;6510;51.362;7.370;2023-04-24T08:39:51;7.20;99.90
12885;DHT22;6510;51.362;7.370;2023-04-24T08:42:17;7.20;99.90
12885;DHT22;6510;51.362;7.370;2023-04-24T08:44:43;7.30;99.90
12885;DHT22;6510;51.362;7.370;2023-04-24T08:47:10;7.00;99.90
12885;DHT22;6510;51.362;7.370;2023-04-24T08:49:37;6.70;99.90
12885;DHT22;6510;51.362;7.370;2023-04-24T08:52:04;6.70;99.90
12885;DHT22;6510;51.362;7.370;2023-04-24T08:54:31;6.70;99.90
12885;DHT22;6510;51.362;7.370;2023-04-24T08:57:01;6.50;99.90
12885;DHT22;6510;51.362;7.370;2023-04-24T08:59:30;6.50;99.90
12885;DHT22;6510;51.362;7.370;2023-04-24T09:01:56;6.50;99.90
12885;DHT22;6510;51.362;7.370;2023-04-24T09:04:23;6.50;99.90
12885;DHT22;6510;51.362;7.370;2023-04-24T09:06:51;6.50;99.90
12885;DHT22;6510;51.362;7.370;2023-04-24T09:09:17;6.50;99.90
12885;DHT22;6510;51.362;7.370;2023-04-24T09:11:44;6.50;99.90
12885;DHT22;6510;51.362;7.370;2023-04-24T09:14:10;6.50;99.90
12885;DHT22;6510;51.362;7.370;2023-04-24T09:16:39;6.50;99.90
12885;DHT22;6510;51.362;7.370;2023-04-24T09:19:05;6.50;99.90
12885;DHT22;6510;51.362;7.370;2023-04-24T09:21:35;6.50;99.90
12885;DHT22;6510;51.362;7.370;2023-04-24T09:24:03;6.60;99.90
12885;DHT22;6510;51.362;7.370;2023-04-24T09:26:30;6.70;99.90
12885;DHT22;6510;51.362;7.370;2023-04-24T09:28:57;6.80;99.90
12885;DHT22;6510;51.362;7.370;2023-04-24T09:31:23;6.90;99.90
12885;DHT22;6510;51.362;7.370;2023-04-24T09:34:02;6.90;99.90
12885;DHT22;6510;51.362;7.370;2023-04-24T09:36:39;7.10;99.90
12885;DHT22;6510;51.362;7.370;2023-04-24T09:39:11;7.10;99.90
12885;DHT22;6510;51.362;7.370;2023-04-24T09:41:51;7.00;99.90
12885;DHT22;6510;51.362;7.370;2023-04-24T09:44:22;7.00;99.90
12885;DHT22;6510;51.362;7.370;2023-04-24T09:46:55;7.10;99.90
12885;DHT22;6510;51.362;7.370;2023-04-24T09:49:39;7.00;99.90
12885;DHT22;6510;51.362;7.370;2023-04-24T09:52:08;7.00;99.90
12885;DHT22;6510;51.362;7.370;2023-04-24T09:54:34;7.00;99.90
12885;DHT22;6510;51.362;7.370;2023-04-24T09:57:01;7.00;99.90
12885;DHT22;6510;51.362;7.370;2023-04-24T09:59:27;7.00;99.90
12885;DHT22;6510;51.362;7.370;2023-04-24T10:01:53;7.00;99.90
12885;DHT22;6510;51.362;7.370;2023-04-24T10:04:22;6.90;99.90
12885;DHT22;6510;51.362;7.370;2023-04-24T10:06:50;6.90;99.90
12885;DHT22;6510;51.362;7.370;2023-04-24T10:09:22;6.90;99.90
12885;DHT22;6510;51.362;7.370;2023-04-24T10:11:50;6.80;99.90
12885;DHT22;6510;51.362;7.370;2023-04-24T10:14:18;6.80;99.90
12885;DHT22;6510;51.362;7.370;2023-04-24T10:16:44;6.70;99.90
12885;DHT22;6510;51.362;7.370;2023-04-24T10:19:12;6.60;99.90
12885;DHT22;6510;51.362;7.370;2023-04-24T10:21:40;6.70;99.90
12885;DHT22;6510;51.362;7.370;2023-04-24T10:24:08;6.70;99.90
12885;DHT22;6510;51.362;7.370;2023-04-24T10:26:34;6.60;99.90
12885;DHT22;6510;51.362;7.370;2023-04-24T10:29:01;6.70;99.90
12885;DHT22;6510;51.362;7.370;2023-04-24T10:31:30;6.50;99.90
12885;DHT22;6510;51.362;7.370;2023-04-24T10:33:56;6.40;99.90
12885;DHT22;6510;51.362;7.370;2023-04-24T10:36:24;6.50;99.90
12885;DHT22;6510;51.362;7.370;2023-04-24T10:38:53;6.50;99.90
12885;DHT22;6510;51.362;7.370;2023-04-24T10:41:20;6.60;99.90
12885;DHT22;6510;51.362;7.370;2023-04-24T10:44:03;6.60;99.90
12885;DHT22;6510;51.362;7.370;2023-04-24T10:46:30;6.60;99.90
12885;DHT22;6510;51.362;7.370;2023-04-24T10:48:56;6.70;99.90
12885;DHT22;6510;51.362;7.370;2023-04-24T10:51:24;6.80;99.90
12885;DHT22;6510;51.362;7.370;2023-04-24T10:54:34;7.10;99.90
12885;DHT22;6510;51.362;7.370;2023-04-24T10:59:45;7.20;99.90
12885;DHT22;6510;51.362;7.370;2023-04-24T11:02:11;7.10;99.90
12885;DHT22;6510;51.362;7.370;2023-04-24T11:04:40;7.20;99.90
12885;DHT22;6510;51.362;7.370;2023-04-24T11:07:09;7.10;99.90
12885;DHT22;6510;51.362;7.370;2023-04-24T11:09:35;7.20;99.90
12885;DHT22;6510;51.362;7.370;2023-04-24T11:12:06;7.10;99.90
12885;DHT22;6510;51.362;7.370;2023-04-24T11:17:30;7.10;99.90
12885;DHT22;6510;51.362;7.370;2023-04-24T11:20:05;7.10;99.90
12885;DHT22;6510;51.362;7.370;2023-04-24T11:22:36;7.50;99.90
12885;DHT22;6510;51.362;7.370;2023-04-24T11:25:03;7.50;99.90
12885;DHT22;6510;51.362;7.370;2023-04-24T11:27:40;7.90;99.90
12885;DHT22;6510;51.362;7.370;2023-04-24T11:30:06;8.00;99.90
12885;DHT22;6510;51.362;7.370;2023-04-24T11:35:03;8.00;99.90
12885;DHT22;6510;51.362;7.370;2023-04-24T11:37:34;7.70;99.90
12885;DHT22;6510;51.362;7.370;2023-04-24T11:40:01;7.80;99.90
12885;DHT22;6510;51.362;7.370;2023-04-24T11:42:28;8.00;99.90
12885;DHT22;6510;51.362;7.370;2023-04-24T11:45:01;7.90;99.90
12885;DHT22;6510;51.362;7.370;2023-04-24T11:47:31;8.10;99.90
12885;DHT22;6510;51.362;7.370;2023-04-24T11:49:59;8.20;99.90
12885;DHT22;6510;51.362;7.370;2023-04-24T11:52:26;8.10;99.90
12885;DHT22;6510;51.362;7.370;2023-04-24T11:54:51;8.30;99.90
12885;DHT22;6510;51.362;7.370;2023-04-24T11:57:21;8.20;99.90
12885;DHT22;6510;51.362;7.370;2023-04-24T11:59:47;8.50;99.90
12885;DHT22;6510;51.362;7.370;2023-04-24T12:04:48;8.70;99.90
12885;DHT22;6510;51.362;7.370;2023-04-24T12:07:13;8.70;99.90
12885;DHT22;6510;51.362;7.370;2023-04-24T12:09:47;8.70;99.90
12885;DHT22;6510;51.362;7.370;2023-04-24T12:12:17;8.60;99.90
12885;DHT22;6510;51.362;7.370;2023-04-24T12:14:50;8.70;99.90
12885;DHT22;6510;51.362;7.370;2023-04-24T12:17:17;8.50;99.90
12885;DHT22;6510;51.362;7.370;2023-04-24T12:19:48;8.60;99.90
12885;DHT22;6510;51.362;7.370;2023-04-24T12:22:15;8.50;99.90
12885;DHT22;6510;51.362;7.370;2023-04-24T12:25:00;8.60;99.90
12885;DHT22;6510;51.362;7.370;2023-04-24T12:27:30;9.00;99.90
12885;DHT22;6510;51.362;7.370;2023-04-24T12:29:57;9.20;99.90
12885;DHT22;6510;51.362;7.370;2023-04-24T12:32:23;8.90;99.90
12885;DHT22;6510;51.362;7.370;2023-04-24T12:34:50;9.20;99.90
12885;DHT22;6510;51.362;7.370;2023-04-24T12:37:17;9.80;99.90
12885;DHT22;6510;51.362;7.370;2023-04-24T12:40:11;9.20;99.90
12885;DHT22;6510;51.362;7.370;2023-04-24T12:42:48;8.80;99.90
12885;DHT22;6510;51.362;7.370;2023-04-24T12:45:15;8.80;99.90
12885;DHT22;6510;51.362;7.370;2023-04-24T12:47:42;8.90;99.90
12885;DHT22;6510;51.362;7.370;2023-04-24T12:50:10;8.80;99.90
12885;DHT22;6510;51.362;7.370;2023-04-24T12:52:36;8.80;99.90
12885;DHT22;6510;51.362;7.370;2023-04-24T12:55:03;8.60;99.90
12885;DHT22;6510;51.362;7.370;2023-04-24T12:57:30;8.40;99.90
12885;DHT22;6510;51.362;7.370;2023-04-24T12:59:57;8.20;99.90
12885;DHT22;6510;51.362;7.370;2023-04-24T13:02:24;8.20;99.90
12885;DHT22;6510;51.362;7.370;2023-04-24T13:04:50;8.10;99.90
12885;DHT22;6510;51.362;7.370;2023-04-24T13:07:16;8.00;99.90
12885;DHT22;6510;51.362;7.370;2023-04-24T13:09:43;8.10;99.90
12885;DHT22;6510;51.362;7.370;2023-04-24T13:12:10;8.10;99.90
12885;DHT22;6510;51.362;7.370;2023-04-24T13:14:36;8.10;99.90
12885;DHT22;6510;51.362;7.370;2023-04-24T13:17:02;8.30;99.90
12885;DHT22;6510;51.362;7.370;2023-04-24T13:19:28;8.50;99.90
12885;DHT22;6510;51.362;7.370;2023-04-24T13:21:56;9.00;99.90
12885;DHT22;6510;51.362;7.370;2023-04-24T13:24:23;9.50;99.90
12885;DHT22;6510;51.362;7.370;2023-04-24T13:26:55;10.30;99.90
12885;DHT22;6510;51.362;7.370;2023-04-24T13:29:22;10.70;99.90
12885;DHT22;6510;51.362;7.370;2023-04-24T13:31:50;10.50;99.90
12885;DHT22;6510;51.362;7.370;2023-04-24T13:34:19;9.80;99.90
12885;DHT22;6510;51.362;7.370;2023-04-24T13:36:45;9.40;99.90
12885;DHT22;6510;51.362;7.370;2023-04-24T13:39:11;9.20;99.90
12885;DHT22;6510;51.362;7.370;2023-04-24T13:41:37;9.00;99.90
12885;DHT22;6510;51.362;7.370;2023-04-24T13:44:03;8.90;99.90
12885;DHT22;6510;51.362;7.370;2023-04-24T13:46:29;8.80;99.90
12885;DHT22;6510;51.362;7.370;2023-04-24T13:48:56;8.70;99.90
12885;DHT22;6510;51.362;7.370;2023-04-24T13:51:22;8.80;99.90
12885;DHT22;6510;51.362;7.370;2023-04-24T13:53:48;8.80;99.90
12885;DHT22;6510;51.362;7.370;2023-04-24T13:56:14;8.80;99.90
12885;DHT22;6510;51.362;7.370;2023-04-24T13:58:40;8.80;99.90
12885;DHT22;6510;51.362;7.370;2023-04-24T14:01:05;8.90;99.90
12885;DHT22;6510;51.362;7.370;2023-04-24T14:03:33;9.00;99.90
12885;DHT22;6510;51.362;7.370;2023-04-24T14:05:58;8.90;99.90
12885;DHT22;6510;51.362;7.370;2023-04-24T14:08:24;8.80;99.90
12885;DHT22;6510;51.362;7.370;2023-04-24T14:10:51;9.00;99.90
12885;DHT22;6510;51.362;7.370;2023-04-24T14:13:16;9.00;99.90
12885;DHT22;6510;51.362;7.370;2023-04-24T14:15:42;9.10;99.90
12885;DHT22;6510;51.362;7.370;2023-04-24T14:18:08;9.20;99.90
12885;DHT22;6510;51.362;7.370;2023-04-24T14:20:34;9.80;99.90
12885;DHT22;6510;51.362;7.370;2023-04-24T14:22:59;10.20;99.90
12885;DHT22;6510;51.362;7.370;2023-04-24T14:25:25;10.20;99.90
12885;DHT22;6510;51.362;7.370;2023-04-24T14:27:51;10.10;99.90
12885;DHT22;6510;51.362;7.370;2023-04-24T14:30:17;9.70;99.90
12885;DHT22;6510;51.362;7.370;2023-04-24T14:32:43;9.50;99.90
12885;DHT22;6510;51.362;7.370;2023-04-24T14:35:08;9.40;99.90
12885;DHT22;6510;51.362;7.370;2023-04-24T14:37:34;9.20;99.90
12885;DHT22;6510;51.362;7.370;2023-04-24T14:40:01;9.00;99.90
12885;DHT22;6510;51.362;7.370;2023-04-24T14:42:26;9.10;99.90
12885;DHT22;6510;51.362;7.370;2023-04-24T14:44:54;9.40;99.90
12885;DHT22;6510;51.362;7.370;2023-04-24T14:47:19;9.70;99.90
12885;DHT22;6510;51.362;7.370;2023-04-24T14:49:47;9.90;99.90
12885;DHT22;6510;51.362;7.370;2023-04-24T14:52:13;10.10;99.90
12885;DHT22;6510;51.362;7.370;2023-04-24T14:54:39;10.00;99.90
12885;DHT22;6510;51.362;7.370;2023-04-24T14:57:04;10.10;99.90
12885;DHT22;6510;51.362;7.370;2023-04-24T14:59:30;10.00;99.90
12885;DHT22;6510;51.362;7.370;2023-04-24T15:01:57;10.00;99.90
12885;DHT22;6510;51.362;7.370;2023-04-24T15:04:27;9.80;99.90
12885;DHT22;6510;51.362;7.370;2023-04-24T15:06:53;9.80;99.90
12885;DHT22;6510;51.362;7.370;2023-04-24T15:09:23;9.60;99.90
12885;DHT22;6510;51.362;7.370;2023-04-24T15:11:50;9.50;99.90
12885;DHT22;6510;51.362;7.370;2023-04-24T15:14:16;9.40;99.90
12885;DHT22;6510;51.362;7.370;2023-04-24T15:16:42;9.40;99.90
12885;DHT22;6510;51.362;7.370;2023-04-24T15:19:08;9.30;99.90
12885;DHT22;6510;51.362;7.370;2023-04-24T15:21:38;9.20;99.90
12885;DHT22;6510;51.362;7.370;2023-04-24T15:24:05;9.30;99.90
12885;DHT22;6510;51.362;7.370;2023-04-24T15:26:31;9.30;99.90
12885;DHT22;6510;51.362;7.370;2023-04-24T15:28:57;9.40;99.90
12885;DHT22;6510;51.362;7.370;2023-04-24T15:31:22;9.50;99.90
12885;DHT22;6510;51.362;7.370;2023-04-24T15:33:49;9.50;99.90
12885;DHT22;6510;51.362;7.370;2023-04-24T15:36:15;9.50;99.90
12885;DHT22;6510;51.362;7.370;2023-04-24T15:38:42;9.50;99.90
12885;DHT22;6510;51.362;7.370;2023-04-24T15:41:08;9.50;99.90
12885;DHT22;6510;51.362;7.370;2023-04-24T15:43:34;9.50;99.90
12885;DHT22;6510;51.362;7.370;2023-04-24T15:46:01;9.50;99.90
12885;DHT22;6510;51.362;7.370;2023-04-24T15:48:30;9.70;99.90
12885;DHT22;6510;51.362;7.370;2023-04-24T15:50:55;9.80;99.90
12885;DHT22;6510;51.362;7.370;2023-04-24T15:53:21;9.80;99.90
12885;DHT22;6510;51.362;7.370;2023-04-24T15:55:50;9.90;99.90
12885;DHT22;6510;51.362;7.370;2023-04-24T15:58:17;9.90;99.90
12885;DHT22;6510;51.362;7.370;2023-04-24T16:00:42;9.80;99.90
12885;DHT22;6510;51.362;7.370;2023-04-24T16:03:08;9.90;99.90
12885;DHT22;6510;51.362;7.370;2023-04-24T16:05:34;9.70;99.90
12885;DHT22;6510;51.362;7.370;2023-04-24T16:08:00;9.70;99.90
12885;DHT22;6510;51.362;7.370;2023-04-24T16:10:26;9.80;99.90